• Join FlightAware (Why Join?)
  • Login
  • US Flag 
02:45AM EDT


 

Airport Tracker/Info


-or-


 

Live Flight TrackerFlight Track Log ✈ DAL3741 ✈ 01-May-2013 ✈ KCWA - KMSP

Flight Track Log - Related Links

Times and Time Zones

All times are in EDT time to prevent confusion due to time zone crossing. See the DAL3741 flight status page for this flight to view local times or setup timezone preferences in your user account.

Time Position Orientation Groundspeed Altitude Reporting Facility
EDT Latitude Longitude Course Direction KTS MPH feet Rate Location/Type
05:07PM 44.8069 -89.7589 282° West 203 234 4,600  Level Minneapolis Center
05:08PM 44.8144 -89.8686 276° West 268 308 7,800 3,000 Climbing Minneapolis Center
05:09PM 44.8194 -89.9725 274° West 258 297 10,800 2,160 Climbing Minneapolis Center
05:10PM 44.8148 -90.1883 275° West  Level FlightAware Approximate
05:10PM 44.8258 -90.0908 274° West 289 333 12,300  Level Minneapolis Center
05:11PM 44.8167 -90.2948 270° West  Level FlightAware Approximate
05:11PM 44.8333 -90.2275 274° West 331 381 14,100  Level Minneapolis Center
05:12PM 44.8417 -90.3661 275° West 339 390 15,800 840 Climbing Minneapolis Center
05:13PM 44.8500 -90.5097 275° West 352 405 15,900 120 Climbing Minneapolis Center
05:14PM 44.8575 -90.6486 274° West 345 397 16,100 60 Climbing Minneapolis Center
05:15PM 44.8644 -90.7933 274° West 352 405 16,100  Level Minneapolis Center
05:16PM 44.8722 -90.9275 275° West 358 412 16,100  Level Minneapolis Center
05:17PM 44.8778 -91.0686 273° West 348 400 16,100  Level Minneapolis Center
05:18PM 44.8850 -91.2089 274° West 345 397 16,100  Level Minneapolis Center
05:19PM 44.8928 -91.3450 275° West 337 388 16,200  Climbing Minneapolis Center
05:20PM 44.9153 -91.4825 283° West 345 397 16,100 -60 Descending Minneapolis Center
05:21PM 44.9389 -91.6203 284° West 348 400 16,100  Level Minneapolis Center
05:22PM 44.9586 -91.7367 284° West 346 398 16,100  Level Minneapolis Center
05:23PM 44.9814 -91.8728 283° West 355 409 16,100 -780 Level Minneapolis Center
05:24PM 45.0092 -92.0331 284° West 351 404 14,500 -1,740 Descending Minneapolis Center
05:25PM 45.0286 -92.1594 282° West 335 386 12,600 -1,620 Descending Minneapolis Center
05:26PM 45.0469 -92.2900 281° West 341 392 11,200 -840 Descending Minneapolis Center
05:27PM 45.0211 -92.4047 252° West 305 351 10,900 -540 Descending Minneapolis Center
05:28PM 44.9731 -92.4867 230° Southwest 272 313 10,100 -1,020 Descending Minneapolis Center
05:29PM 44.9244 -92.5925 237° Southwest 268 308 8,900 -1,140 Descending Minneapolis Center
05:30PM 44.8867 -92.6814 239° Southwest 266 306 7,800 -1,020 Descending Minneapolis Center
05:31PM 44.8472 -92.7714 238° Southwest 270 311 6,800 -1,020 Descending Minneapolis Center
05:32PM 44.8122 -92.8517 238° Southwest 244 281 5,800 -1,020 Descending Minneapolis Center
05:34PM 44.7864 -92.9317 246° West 233 268 4,800 -840 Descending Minneapolis Center
05:35PM 44.7964 -93.0039 281° West 189 217 4,100 -960 Descending Minneapolis Center
05:36PM 44.8278 -93.0708 303° West 172 198 2,900 -1,200 Descending Minneapolis Center